Time;durP1;ratioP1;P1;durP2;ratioP2;P2;SDS_P1;SDS_P2;PMS_P1;PMS_P2;Temp;Humidity;BMP_temperature;BMP_pressure;BME280_temperature;BME280_humidity;BME280_pressure;Samples;Min_cycle;Max_cycle;Signal;HPM_P1;HPM_P2
2023/02/01 00:01:55;;;;;;;15.63;3.47;;;6.00;99.90;;;;;;5080171;28;20579;-42
2023/02/01 00:04:21;;;;;;;17.48;4.38;;;6.00;99.90;;;;;;5080841;28;20030;-42
2023/02/01 00:06:46;;;;;;;15.13;3.25;;;6.10;99.90;;;;;;5081060;28;20029;-43
2023/02/01 00:09:12;;;;;;;17.27;2.80;;;6.10;99.90;;;;;;5079662;28;20418;-42
2023/02/01 00:11:37;;;;;;;12.45;2.88;;;6.10;99.90;;;;;;5078663;28;20057;-43
2023/02/01 00:14:03;;;;;;;9.75;2.75;;;6.00;99.90;;;;;;5081002;28;20039;-43
2023/02/01 00:16:30;;;;;;;11.05;3.08;;;6.00;99.90;;;;;;5079907;28;20032;-43
2023/02/01 00:19:04;;;;;;;13.90;3.55;;;5.90;99.90;;;;;;5081143;28;20047;-43
2023/02/01 00:21:30;;;;;;;13.90;3.30;;;5.90;99.90;;;;;;5083202;28;20942;-43
2023/02/01 00:23:57;;;;;;;14.35;3.22;;;5.90;99.90;;;;;;5083995;28;20571;-43
2023/02/01 00:26:31;;;;;;;11.40;3.30;;;5.90;99.90;;;;;;5084640;28;20020;-43
2023/02/01 00:28:56;;;;;;;17.90;3.42;;;5.80;99.90;;;;;;5085285;28;20054;-43
2023/02/01 00:31:22;;;;;;;12.35;2.55;;;5.80;99.90;;;;;;5084709;28;20090;-43
2023/02/01 00:33:48;;;;;;;11.52;3.03;;;5.80;99.90;;;;;;5085571;28;20880;-43
2023/02/01 00:36:14;;;;;;;20.05;3.70;;;5.90;99.90;;;;;;5084238;28;20040;-43
2023/02/01 00:38:40;;;;;;;13.95;3.25;;;5.80;99.90;;;;;;5084524;28;20032;-43
2023/02/01 00:41:12;;;;;;;15.82;3.35;;;5.80;99.90;;;;;;5085146;28;20110;-42
2023/02/01 00:43:38;;;;;;;16.05;3.28;;;5.80;99.90;;;;;;5083842;28;20031;-42
2023/02/01 00:46:04;;;;;;;11.02;3.13;;;5.80;99.90;;;;;;5084357;28;20020;-42
2023/02/01 00:48:30;;;;;;;17.35;3.65;;;5.80;99.90;;;;;;5084308;28;20065;-44
2023/02/01 00:51:00;;;;;;;10.48;2.60;;;5.90;99.90;;;;;;5083754;28;20475;-42
2023/02/01 00:53:26;;;;;;;15.20;4.35;;;5.90;99.90;;;;;;5084819;28;20020;-43
2023/02/01 00:55:51;;;;;;;12.45;3.08;;;5.90;99.90;;;;;;5084352;28;20035;-42
2023/02/01 00:58:17;;;;;;;15.27;3.00;;;5.90;99.90;;;;;;5084027;28;20046;-43
2023/02/01 01:00:42;;;;;;;15.45;3.72;;;6.00;99.90;;;;;;5084022;28;20785;-43
2023/02/01 01:03:17;;;;;;;16.45;3.33;;;6.00;99.90;;;;;;5084384;28;20028;-43
2023/02/01 01:05:46;;;;;;;14.45;2.97;;;6.00;99.90;;;;;;5083999;28;20384;-42
2023/02/01 01:08:12;;;;;;;21.05;4.22;;;6.00;99.90;;;;;;5083916;28;20032;-43
2023/02/01 01:10:38;;;;;;;18.13;3.55;;;6.00;99.90;;;;;;5084174;28;20020;-42
2023/02/01 01:13:04;;;;;;;15.23;2.55;;;6.00;99.90;;;;;;5082738;28;20140;-42
2023/02/01 01:15:30;;;;;;;23.88;3.72;;;6.00;99.90;;;;;;5083864;28;20136;-43
2023/02/01 01:17:55;;;;;;;14.63;3.40;;;6.00;99.90;;;;;;5083531;28;20929;-43
2023/02/01 01:20:21;;;;;;;18.48;3.72;;;6.00;99.90;;;;;;5083564;28;20096;-43
2023/02/01 01:22:47;;;;;;;16.23;3.38;;;6.00;99.90;;;;;;5083708;28;20020;-43
2023/02/01 01:25:13;;;;;;;17.20;3.30;;;6.00;99.90;;;;;;5083692;28;20054;-42
2023/02/01 01:27:39;;;;;;;11.35;3.13;;;6.00;99.90;;;;;;5083308;28;20028;-42
2023/02/01 01:30:05;;;;;;;14.18;2.90;;;5.90;99.90;;;;;;5084240;28;20120;-43
2023/02/01 01:32:31;;;;;;;10.40;2.53;;;5.90;99.90;;;;;;5082780;28;20028;-43
2023/02/01 01:34:56;;;;;;;12.23;3.30;;;5.90;99.90;;;;;;5083547;28;20769;-43
2023/02/01 01:37:22;;;;;;;14.52;2.78;;;5.90;99.90;;;;;;5084156;28;20162;-43
2023/02/01 01:39:47;;;;;;;8.48;2.42;;;5.90;99.90;;;;;;5083074;28;20081;-43
2023/02/01 01:42:13;;;;;;;13.02;3.42;;;5.90;99.90;;;;;;5084786;28;20051;-44
2023/02/01 01:45:17;;;;;;;13.35;2.70;;;5.80;99.90;;;;;;5083751;28;20024;-44
2023/02/01 01:47:48;;;;;;;13.20;3.03;;;5.80;99.90;;;;;;5082900;28;20028;-42
2023/02/01 01:50:18;;;;;;;10.55;2.97;;;5.80;99.90;;;;;;5082910;28;20127;-43
2023/02/01 01:52:50;;;;;;;15.80;3.22;;;5.80;99.90;;;;;;5083106;28;20105;-42
2023/02/01 01:55:20;;;;;;;16.63;3.20;;;5.70;99.90;;;;;;5079755;28;20024;-43
2023/02/01 01:57:53;;;;;;;15.02;3.17;;;5.70;99.90;;;;;;5083381;28;20262;-43
2023/02/01 02:00:20;;;;;;;13.10;3.00;;;5.70;99.90;;;;;;5083587;28;20136;-44
2023/02/01 02:02:48;;;;;;;12.68;4.70;;;5.70;99.90;;;;;;5081757;28;20025;-43
2023/02/01 02:05:15;;;;;;;16.13;2.92;;;5.70;99.90;;;;;;5082852;28;20095;-43
2023/02/01 02:07:45;;;;;;;13.13;3.00;;;5.70;99.90;;;;;;5083003;28;20383;-43
2023/02/01 02:10:13;;;;;;;14.52;3.38;;;5.70;99.90;;;;;;5083208;28;20546;-43
2023/02/01 02:12:41;;;;;;;15.77;3.60;;;5.80;99.90;;;;;;5083636;28;20028;-43
2023/02/01 02:15:12;;;;;;;14.60;3.28;;;5.80;99.90;;;;;;5082106;28;20067;-42
2023/02/01 02:17:59;;;;;;;17.95;3.10;;;5.80;99.90;;;;;;5082963;28;20095;-42
2023/02/01 02:20:56;;;;;;;20.08;4.15;;;5.80;99.90;;;;;;5082487;28;20039;-42
2023/02/01 02:23:26;;;;;;;14.68;3.30;;;5.90;99.90;;;;;;5062246;28;20760;-43
2023/02/01 02:26:23;;;;;;;19.02;3.63;;;5.90;99.90;;;;;;5081130;28;20047;-44
2023/02/01 02:29:12;;;;;;;15.30;2.78;;;5.90;99.90;;;;;;5082662;28;20035;-43
2023/02/01 02:32:06;;;;;;;13.10;2.75;;;5.90;99.90;;;;;;5080638;28;20153;-43
2023/02/01 02:34:40;;;;;;;17.88;3.97;;;5.90;99.90;;;;;;5046691;28;20032;-44
2023/02/01 02:37:38;;;;;;;14.45;3.22;;;5.90;99.90;;;;;;5081794;28;20031;-43
2023/02/01 02:40:07;;;;;;;14.32;2.75;;;5.90;99.90;;;;;;5082178;28;20123;-43
2023/02/01 02:48:57;;;;;;;;;;;6.00;99.90;;;;;;5082816;28;20119;-43
2023/02/01 02:54:46;;;;;;;9.73;2.55;;;5.80;99.90;;;;;;5062486;28;20137;-42
2023/02/01 03:05:50;;;;;;;12.77;2.80;;;5.70;99.90;;;;;;5081648;28;20098;-43
2023/02/01 03:08:20;;;;;;;13.57;2.45;;;5.60;99.90;;;;;;5081648;28;20711;-42
2023/02/01 03:10:53;;;;;;;14.85;2.88;;;5.60;99.90;;;;;;5081300;28;20028;-42
2023/02/01 03:13:56;;;;;;;12.80;3.10;;;5.70;99.90;;;;;;5071033;28;20434;-43
2023/02/01 03:16:30;;;;;;;16.27;3.20;;;5.70;99.90;;;;;;5081977;28;20032;-42
2023/02/01 03:19:16;;;;;;;12.13;2.10;;;5.70;99.90;;;;;;5080808;28;20035;-43
2023/02/01 03:21:52;;;;;;;14.57;3.45;;;5.70;99.90;;;;;;5081330;28;20024;-43
2023/02/01 03:24:22;;;;;;;15.68;3.22;;;5.70;99.90;;;;;;5081885;28;20073;-43
2023/02/01 03:26:55;;;;;;;12.10;2.80;;;5.70;99.90;;;;;;5080416;28;20463;-42
2023/02/01 03:29:30;;;;;;;14.00;2.90;;;5.70;99.90;;;;;;5081662;28;20126;-43
2023/02/01 03:31:56;;;;;;;16.15;3.17;;;5.60;99.90;;;;;;5081378;28;20448;-43
2023/02/01 03:34:21;;;;;;;15.88;3.08;;;5.70;99.90;;;;;;5080869;28;20027;-43
2023/02/01 03:36:58;;;;;;;15.27;3.25;;;5.60;99.90;;;;;;5080852;28;20047;-43
2023/02/01 03:39:41;;;;;;;12.45;2.92;;;5.70;99.90;;;;;;5080466;28;20092;-43
2023/02/01 03:42:28;;;;;;;15.48;3.03;;;5.80;99.90;;;;;;5081004;28;20027;-43
2023/02/01 03:45:13;;;;;;;16.13;3.10;;;5.80;99.90;;;;;;5081015;28;20024;-43
2023/02/01 03:47:43;;;;;;;21.40;4.30;;;5.90;99.90;;;;;;5080931;28;20139;-43
2023/02/01 03:50:10;;;;;;;18.02;3.72;;;6.00;99.90;;;;;;5081870;28;20077;-42
2023/02/01 03:52:46;;;;;;;21.08;4.03;;;6.10;99.90;;;;;;5077197;28;20192;-42
2023/02/01 03:55:16;;;;;;;17.80;3.30;;;6.10;99.90;;;;;;5080002;28;20041;-42
2023/02/01 03:57:46;;;;;;;19.92;4.30;;;6.20;99.90;;;;;;5081355;28;20051;-41
2023/02/01 04:00:22;;;;;;;20.77;4.13;;;6.20;99.90;;;;;;5080333;28;20040;-43
2023/02/01 04:02:48;;;;;;;16.77;3.28;;;6.20;99.90;;;;;;5080561;28;20357;-42
2023/02/01 04:05:13;;;;;;;20.10;4.18;;;6.20;99.90;;;;;;5081332;28;20561;-42
2023/02/01 04:07:39;;;;;;;14.85;3.42;;;6.20;99.90;;;;;;5080977;28;20056;-42
2023/02/01 04:10:05;;;;;;;18.00;3.83;;;6.20;99.90;;;;;;5081295;28;20802;-43
2023/02/01 04:12:31;;;;;;;21.63;3.47;;;6.20;99.90;;;;;;5081287;28;20040;-42
2023/02/01 04:14:56;;;;;;;20.02;4.13;;;6.10;99.90;;;;;;5080014;28;20555;-42
2023/02/01 04:17:22;;;;;;;18.85;3.35;;;6.10;99.90;;;;;;5080819;28;20830;-43
2023/02/01 04:19:47;;;;;;;17.20;3.28;;;6.10;99.90;;;;;;5080710;28;20035;-42
2023/02/01 04:22:13;;;;;;;17.52;3.75;;;6.10;99.90;;;;;;5079967;28;20024;-43
2023/02/01 04:24:38;;;;;;;20.58;3.70;;;6.20;99.90;;;;;;5080260;28;20039;-43
2023/02/01 04:27:04;;;;;;;16.60;3.60;;;6.20;99.90;;;;;;5081587;28;20032;-43
2023/02/01 04:29:30;;;;;;;18.67;3.83;;;6.20;99.90;;;;;;5080124;28;20024;-43
2023/02/01 04:31:55;;;;;;;14.85;3.30;;;6.20;99.90;;;;;;5081162;28;20398;-43
2023/02/01 04:34:22;;;;;;;20.38;3.88;;;6.30;99.90;;;;;;5080827;28;20443;-43
2023/02/01 04:36:48;;;;;;;20.25;3.85;;;6.30;99.90;;;;;;5080227;28;20161;-42
2023/02/01 04:39:13;;;;;;;27.77;4.90;;;6.40;99.90;;;;;;5081213;28;20036;-42
2023/02/01 04:41:39;;;;;;;18.92;4.03;;;6.40;99.90;;;;;;5080909;28;20123;-42
2023/02/01 04:44:15;;;;;;;19.70;4.07;;;6.50;99.90;;;;;;5080384;28;20407;-42
2023/02/01 04:46:40;;;;;;;16.55;4.88;;;6.60;99.90;;;;;;5080970;28;20035;-43
2023/02/01 04:49:06;;;;;;;16.65;4.40;;;6.60;99.90;;;;;;5080738;28;20024;-43
2023/02/01 04:51:32;;;;;;;17.98;3.70;;;6.60;99.90;;;;;;5079378;28;20032;-43
2023/02/01 04:53:57;;;;;;;23.92;4.05;;;6.70;99.90;;;;;;5080522;28;20115;-42
2023/02/01 04:56:23;;;;;;;20.17;4.70;;;6.70;99.90;;;;;;5080179;28;20034;-43
2023/02/01 04:58:49;;;;;;;22.80;3.70;;;6.80;99.90;;;;;;5080304;28;20036;-42
2023/02/01 05:01:14;;;;;;;18.65;3.75;;;6.80;99.90;;;;;;5080212;28;20859;-43
2023/02/01 05:03:40;;;;;;;21.25;3.80;;;6.90;99.90;;;;;;5079794;28;20028;-42
2023/02/01 05:06:08;;;;;;;14.60;3.05;;;6.90;99.90;;;;;;5080229;28;20052;-42
2023/02/01 05:08:34;;;;;;;21.60;3.50;;;6.90;99.90;;;;;;5083817;28;20027;-43
2023/02/01 05:11:02;;;;;;;14.98;3.50;;;6.90;99.90;;;;;;5084073;28;20039;-43
2023/02/01 05:16:12;;;;;;;20.75;3.35;;;7.00;99.90;;;;;;5084316;28;20039;-43
2023/02/01 05:18:38;;;;;;;19.88;4.10;;;7.00;99.90;;;;;;5083441;28;20027;-43
2023/02/01 05:21:03;;;;;;;13.93;4.25;;;7.00;99.90;;;;;;5084265;28;20032;-43
2023/02/01 05:23:29;;;;;;;16.63;3.72;;;7.00;99.90;;;;;;5083711;28;20028;-44
2023/02/01 05:26:01;;;;;;;19.65;4.38;;;7.10;99.90;;;;;;5083160;28;20139;-44
2023/02/01 05:28:28;;;;;;;14.18;3.42;;;7.10;99.90;;;;;;5084237;28;20082;-43
2023/02/01 05:30:54;;;;;;;19.05;3.38;;;7.10;99.90;;;;;;5083299;28;20093;-43
2023/02/01 05:33:20;;;;;;;15.35;2.83;;;7.10;99.90;;;;;;5083513;28;20036;-43
2023/02/01 05:35:45;;;;;;;19.58;3.75;;;7.10;99.90;;;;;;5083202;28;20488;-43
2023/02/01 05:38:11;;;;;;;16.52;4.22;;;7.10;99.90;;;;;;5083470;28;20025;-42
2023/02/01 05:40:36;;;;;;;18.52;3.90;;;7.10;99.90;;;;;;5082754;28;20766;-42
2023/02/01 05:43:02;;;;;;;18.98;3.80;;;7.20;99.90;;;;;;5083060;28;20471;-43
2023/02/01 05:45:28;;;;;;;12.90;2.90;;;7.20;99.90;;;;;;5083736;28;20031;-44
2023/02/01 05:47:53;;;;;;;17.42;3.15;;;7.20;99.90;;;;;;5082929;28;20117;-43
2023/02/01 05:50:19;;;;;;;14.35;3.30;;;7.20;99.90;;;;;;5084220;28;20031;-43
2023/02/01 05:52:44;;;;;;;16.65;3.83;;;7.20;99.90;;;;;;5082959;28;20023;-43
2023/02/01 05:55:10;;;;;;;13.48;3.30;;;7.20;99.90;;;;;;5083589;28;20530;-42
2023/02/01 05:57:35;;;;;;;17.85;3.88;;;7.20;99.90;;;;;;5083482;28;20019;-42
2023/02/01 06:00:02;;;;;;;19.92;4.25;;;7.20;99.90;;;;;;5083165;28;20086;-42
2023/02/01 06:02:27;;;;;;;21.88;4.20;;;7.20;99.90;;;;;;5080690;28;20016;-42
2023/02/01 06:04:53;;;;;;;17.70;3.90;;;7.20;99.90;;;;;;5082443;28;20108;-43
2023/02/01 06:07:18;;;;;;;14.73;3.22;;;7.30;99.90;;;;;;5082203;28;20028;-43
2023/02/01 06:09:44;;;;;;;16.38;3.08;;;7.30;99.90;;;;;;5083232;28;20035;-43
2023/02/01 06:12:09;;;;;;;15.65;3.80;;;7.30;99.90;;;;;;5082551;28;20119;-43
2023/02/01 06:14:36;;;;;;;16.15;4.40;;;7.30;99.90;;;;;;5082323;28;20032;-43
2023/02/01 06:17:02;;;;;;;17.88;4.68;;;7.30;99.90;;;;;;5082592;28;20024;-42
2023/02/01 06:19:28;;;;;;;15.13;3.50;;;7.30;99.90;;;;;;5081634;28;20074;-43
2023/02/01 06:21:54;;;;;;;20.67;3.55;;;7.30;99.90;;;;;;5079659;28;20024;-43
2023/02/01 06:24:19;;;;;;;16.27;3.10;;;7.30;99.90;;;;;;5082534;28;20035;-43
2023/02/01 06:26:45;;;;;;;19.13;3.63;;;7.30;99.90;;;;;;5082864;28;20040;-43
2023/02/01 06:29:11;;;;;;;15.95;3.13;;;7.30;99.90;;;;;;5081602;28;20024;-43
2023/02/01 06:31:36;;;;;;;21.23;4.82;;;7.30;99.90;;;;;;5081978;28;20040;-43
2023/02/01 06:34:02;;;;;;;22.38;3.92;;;7.30;99.90;;;;;;5081990;28;20144;-43
2023/02/01 06:36:29;;;;;;;17.65;4.25;;;7.30;99.90;;;;;;5080743;28;20423;-43
2023/02/01 06:38:59;;;;;;;15.40;4.32;;;7.30;99.90;;;;;;5081613;28;20024;-43
2023/02/01 06:41:25;;;;;;;20.55;3.78;;;7.30;99.90;;;;;;5081582;28;20038;-43
2023/02/01 06:43:51;;;;;;;21.20;3.80;;;7.30;99.90;;;;;;5081364;28;20542;-43
2023/02/01 06:46:17;;;;;;;16.25;3.60;;;7.40;99.90;;;;;;5082287;28;20024;-43
2023/02/01 06:48:42;;;;;;;12.35;3.25;;;7.30;99.90;;;;;;5081772;28;20077;-43
2023/02/01 06:51:29;;;;;;;16.52;3.65;;;7.40;99.90;;;;;;5080658;28;20487;-43
2023/02/01 06:53:54;;;;;;;20.48;3.63;;;7.40;99.90;;;;;;5081094;28;20800;-44
2023/02/01 06:56:20;;;;;;;16.20;3.17;;;7.40;99.90;;;;;;5080954;28;20031;-42
2023/02/01 06:58:46;;;;;;;20.23;4.22;;;7.40;99.90;;;;;;5081075;28;20052;-43
2023/02/01 07:01:12;;;;;;;16.52;3.28;;;7.40;99.90;;;;;;5081000;28;20028;-43
2023/02/01 07:03:38;;;;;;;19.48;4.30;;;7.40;99.90;;;;;;5081267;28;20491;-42
2023/02/01 07:06:04;;;;;;;18.23;3.85;;;7.30;99.90;;;;;;5070421;28;20066;-42
2023/02/01 07:08:31;;;;;;;17.35;3.25;;;7.40;99.90;;;;;;5081532;28;20020;-43
2023/02/01 07:11:02;;;;;;;20.20;3.60;;;7.30;99.90;;;;;;5080809;28;20020;-42
2023/02/01 07:13:27;;;;;;;18.55;3.80;;;7.30;99.90;;;;;;5081090;28;20023;-43
2023/02/01 07:15:53;;;;;;;20.20;3.60;;;7.40;99.90;;;;;;5080690;28;20031;-42
2023/02/01 07:18:18;;;;;;;21.33;4.32;;;7.40;99.90;;;;;;5077932;28;20044;-43
2023/02/01 07:20:50;;;;;;;15.63;3.30;;;7.30;99.90;;;;;;5078613;28;20062;-43
2023/02/01 07:23:15;;;;;;;13.35;3.63;;;7.30;99.90;;;;;;5079372;28;20031;-42
2023/02/01 07:25:41;;;;;;;17.65;4.18;;;7.30;99.90;;;;;;5078590;28;20032;-43
2023/02/01 07:28:06;;;;;;;17.63;3.42;;;7.20;99.90;;;;;;5079817;28;20028;-43
2023/02/01 07:30:35;;;;;;;21.98;3.50;;;7.20;99.90;;;;;;5079365;28;20028;-42
2023/02/01 07:33:01;;;;;;;21.83;3.22;;;7.20;99.90;;;;;;5079450;28;20028;-43
2023/02/01 07:35:27;;;;;;;19.27;4.40;;;7.20;99.90;;;;;;5080703;28;20059;-43
2023/02/01 07:37:53;;;;;;;22.48;3.90;;;7.10;99.90;;;;;;5081353;28;20023;-42
2023/02/01 07:40:22;;;;;;;17.23;4.60;;;7.10;99.90;;;;;;5081167;28;20795;-43
2023/02/01 07:42:48;;;;;;;21.00;3.75;;;7.10;99.90;;;;;;5080581;28;20039;-42
2023/02/01 07:45:15;;;;;;;15.95;3.53;;;7.00;99.90;;;;;;5079523;28;20030;-42
2023/02/01 07:47:40;;;;;;;17.80;3.75;;;7.00;99.90;;;;;;5080647;28;20020;-43
2023/02/01 07:50:06;;;;;;;18.15;4.25;;;7.00;99.90;;;;;;5080417;28;20024;-43
2023/02/01 07:52:32;;;;;;;16.38;3.67;;;7.00;99.90;;;;;;5079721;28;20808;-42
2023/02/01 07:54:57;;;;;;;13.93;3.25;;;7.10;99.90;;;;;;5080558;28;20103;-42
2023/02/01 07:57:23;;;;;;;19.10;4.55;;;7.00;99.90;;;;;;5080359;28;20016;-42
2023/02/01 08:02:33;;;;;;;17.10;4.05;;;7.00;99.90;;;;;;5080740;28;20047;-42
2023/02/01 08:05:01;;;;;;;16.90;4.28;;;7.00;99.90;;;;;;5077663;28;20020;-42
2023/02/01 08:07:27;;;;;;;17.88;4.20;;;7.00;99.90;;;;;;5080077;28;20020;-42
2023/02/01 08:09:52;;;;;;;20.55;4.38;;;7.00;99.90;;;;;;5080504;28;20028;-42
2023/02/01 08:12:18;;;;;;;12.18;3.22;;;7.00;99.90;;;;;;5080998;28;20028;-42
2023/02/01 08:14:43;;;;;;;18.80;3.30;;;7.00;99.90;;;;;;5079560;28;20044;-42
2023/02/01 08:17:09;;;;;;;14.93;3.53;;;7.00;99.90;;;;;;5080728;28;20064;-43
2023/02/01 08:19:34;;;;;;;16.52;3.55;;;7.00;99.90;;;;;;5080483;28;20040;-43
2023/02/01 08:22:01;;;;;;;21.42;3.90;;;7.00;99.90;;;;;;5080286;28;20024;-43
2023/02/01 08:24:27;;;;;;;23.10;4.10;;;7.00;99.90;;;;;;5081462;28;20032;-43
2023/02/01 08:26:52;;;;;;;18.55;3.38;;;7.00;99.90;;;;;;5080749;28;20606;-44
2023/02/01 08:29:18;;;;;;;18.35;3.47;;;7.00;99.90;;;;;;5081309;28;20032;-43
2023/02/01 08:31:43;;;;;;;19.10;4.05;;;7.00;99.90;;;;;;5080235;28;20090;-42
2023/02/01 08:34:09;;;;;;;18.15;3.60;;;7.00;99.90;;;;;;5080351;28;20068;-43
2023/02/01 08:36:37;;;;;;;16.38;3.28;;;7.00;99.90;;;;;;5079932;28;20067;-44
2023/02/01 08:39:05;;;;;;;14.00;3.15;;;7.10;99.90;;;;;;5079998;28;20569;-45
2023/02/01 08:41:31;;;;;;;15.20;2.78;;;7.10;99.90;;;;;;5079829;28;20040;-44
2023/02/01 08:43:57;;;;;;;15.15;3.30;;;7.20;99.90;;;;;;5084354;28;20060;-43
2023/02/01 08:46:23;;;;;;;17.67;3.47;;;7.20;99.90;;;;;;5085047;28;20380;-42
2023/02/01 08:48:49;;;;;;;18.92;4.05;;;7.30;99.90;;;;;;5083268;28;20812;-42
2023/02/01 08:51:17;;;;;;;17.90;3.35;;;7.30;99.90;;;;;;5084790;28;20024;-43
2023/02/01 08:53:43;;;;;;;14.48;2.80;;;7.40;99.90;;;;;;5084056;28;20032;-43
2023/02/01 08:56:11;;;;;;;16.50;3.33;;;7.40;99.90;;;;;;5083726;28;20027;-43
2023/02/01 08:58:37;;;;;;;15.77;3.55;;;7.50;99.90;;;;;;5083076;28;20605;-43
2023/02/01 09:01:07;;;;;;;23.23;4.75;;;7.60;99.90;;;;;;5084595;28;20123;-43
2023/02/01 09:03:33;;;;;;;16.10;3.85;;;7.60;99.90;;;;;;5083477;28;20379;-43
2023/02/01 09:06:10;;;;;;;16.40;3.47;;;7.70;99.90;;;;;;5084658;28;20023;-44
2023/02/01 09:08:37;;;;;;;16.70;4.25;;;7.70;99.90;;;;;;5083913;28;20107;-42
2023/02/01 09:11:11;;;;;;;14.40;3.20;;;7.70;99.90;;;;;;5083503;28;20056;-42
2023/02/01 09:13:36;;;;;;;15.35;3.40;;;7.70;99.90;;;;;;5083810;28;20066;-43
2023/02/01 09:16:03;;;;;;;20.23;3.38;;;7.70;99.90;;;;;;5084637;28;20111;-43
2023/02/01 09:18:28;;;;;;;19.55;3.70;;;7.70;99.90;;;;;;5083472;28;20055;-44
2023/02/01 09:20:54;;;;;;;13.88;3.35;;;7.70;99.90;;;;;;5083284;28;20202;-43
2023/02/01 09:23:20;;;;;;;15.52;3.47;;;7.70;99.90;;;;;;5084100;28;20031;-43
2023/02/01 09:25:46;;;;;;;21.77;3.63;;;7.70;99.90;;;;;;5082972;28;20036;-43
2023/02/01 09:28:11;;;;;;;14.15;3.97;;;7.70;99.90;;;;;;5083930;28;20120;-44
2023/02/01 09:30:37;;;;;;;17.90;3.60;;;7.70;99.90;;;;;;5083475;28;20039;-42
2023/02/01 09:33:03;;;;;;;15.15;3.10;;;7.80;99.90;;;;;;5082403;28;20031;-43
2023/02/01 09:35:29;;;;;;;17.95;3.08;;;7.80;99.90;;;;;;5083088;28;20163;-43
2023/02/01 09:37:55;;;;;;;14.23;2.97;;;7.90;99.90;;;;;;5083461;28;20030;-44
2023/02/01 09:40:21;;;;;;;17.58;3.53;;;8.00;99.90;;;;;;5083823;28;20046;-43
2023/02/01 09:43:08;;;;;;;16.35;3.80;;;8.10;99.90;;;;;;5083971;28;20024;-44
2023/02/01 09:45:39;;;;;;;17.70;3.45;;;8.20;99.90;;;;;;5081163;28;20318;-43
2023/02/01 09:48:17;;;;;;;15.48;4.18;;;8.20;99.90;;;;;;5083605;28;20135;-43
2023/02/01 09:50:49;;;;;;;16.45;3.60;;;8.30;99.90;;;;;;5082957;28;20039;-43
2023/02/01 09:53:25;;;;;;;19.55;3.85;;;8.30;99.90;;;;;;5080074;28;20795;-43
2023/02/01 09:55:54;;;;;;;22.05;3.90;;;8.40;99.90;;;;;;5081009;28;20085;-42
2023/02/01 09:58:27;;;;;;;15.40;3.58;;;8.40;99.90;;;;;;5083257;28;20067;-43
2023/02/01 10:00:56;;;;;;;21.48;3.83;;;8.40;99.90;;;;;;5082008;28;20494;-42
2023/02/01 10:03:26;;;;;;;15.80;3.40;;;8.40;99.90;;;;;;5081959;28;20021;-44
2023/02/01 10:06:30;;;;;;;17.67;4.07;;;8.40;99.90;;;;;;5083106;28;20036;-43
2023/02/01 10:09:04;;;;;;;15.57;3.13;;;8.40;99.90;;;;;;5063610;28;20024;-43
2023/02/01 10:11:48;;;;;;;20.27;3.80;;;8.40;99.90;;;;;;5081739;28;20059;-43
2023/02/01 10:14:32;;;;;;;17.35;3.63;;;8.40;99.90;;;;;;5081646;28;20459;-47
2023/02/01 10:17:19;;;;;;;14.98;3.80;;;8.40;99.90;;;;;;5082396;28;20051;-43
2023/02/01 10:20:08;;;;;;;20.83;4.60;;;8.40;99.90;;;;;;5082944;28;20139;-42
2023/02/01 10:23:10;;;;;;;18.35;3.50;;;8.40;99.90;;;;;;5082508;28;20368;-43
2023/02/01 10:25:46;;;;;;;18.67;4.03;;;8.40;99.90;;;;;;5082810;28;20749;-44
2023/02/01 10:28:15;;;;;;;16.67;3.75;;;8.40;99.90;;;;;;5081930;28;20055;-43
2023/02/01 10:30:46;;;;;;;21.10;4.40;;;8.30;99.90;;;;;;5082390;28;20036;-43
2023/02/01 10:33:32;;;;;;;16.85;3.60;;;8.40;99.90;;;;;;5082597;28;20024;-43
2023/02/01 10:36:16;;;;;;;21.17;3.78;;;8.30;99.90;;;;;;5081482;28;20056;-43
2023/02/01 10:38:45;;;;;;;18.67;3.30;;;8.30;99.90;;;;;;5082631;28;20032;-43
2023/02/01 10:41:18;;;;;;;15.90;3.60;;;8.20;99.90;;;;;;5081748;28;20052;-42
2023/02/01 10:43:45;;;;;;;22.77;3.97;;;8.20;99.90;;;;;;5082618;28;20545;-44
2023/02/01 10:46:11;;;;;;;23.35;4.65;;;8.10;99.90;;;;;;5082112;28;20429;-43
2023/02/01 10:48:37;;;;;;;20.60;3.83;;;8.10;99.90;;;;;;5082060;28;20463;-43
2023/02/01 10:51:10;;;;;;;16.30;3.80;;;8.00;99.90;;;;;;5082474;28;20366;-42
2023/02/01 10:53:37;;;;;;;;;;;7.90;99.90;;;;;;5081944;28;20031;-42
2023/02/01 10:56:07;;;;;;;23.02;4.05;;;7.90;99.90;;;;;;5081241;28;20007;-42
2023/02/01 10:58:36;;;;;;;18.08;4.20;;;7.70;99.90;;;;;;5082081;28;20019;-43
2023/02/01 11:01:15;;;;;;;20.52;4.20;;;7.70;99.90;;;;;;5081834;28;20040;-43
2023/02/01 11:03:55;;;;;;;23.20;3.97;;;7.60;99.90;;;;;;5078465;28;20012;-42
2023/02/01 11:06:53;;;;;;;21.85;4.38;;;7.60;99.90;;;;;;5081574;28;20044;-43
2023/02/01 11:09:21;;;;;;;14.02;3.45;;;7.60;99.90;;;;;;5070633;28;20404;-43
2023/02/01 11:11:46;;;;;;;17.85;3.55;;;7.60;99.90;;;;;;5081939;28;20075;-42
2023/02/01 11:14:19;;;;;;;15.68;3.47;;;7.60;99.90;;;;;;5081727;28;20028;-43
2023/02/01 11:16:50;;;;;;;;;;;7.60;99.90;;;;;;5081644;28;20043;-43
2023/02/01 11:19:17;;;;;;;16.33;4.15;;;7.60;99.90;;;;;;5081788;28;19923;-43
2023/02/01 11:21:44;;;;;;;21.15;4.65;;;7.60;99.90;;;;;;5081880;28;20077;-43
2023/02/01 11:24:29;;;;;;;19.02;5.13;;;7.70;99.90;;;;;;5081211;28;20024;-43
2023/02/01 11:26:56;;;;;;;23.50;4.10;;;7.70;99.90;;;;;;5082315;28;20367;-43
2023/02/01 11:29:29;;;;;;;15.95;3.50;;;7.80;99.90;;;;;;5082013;28;20054;-43
2023/02/01 11:31:58;;;;;;;;;;;7.80;99.90;;;;;;5082170;28;20116;-43
2023/02/01 11:34:32;;;;;;;16.75;4.32;;;7.80;99.90;;;;;;5081871;28;19908;-43
2023/02/01 11:37:03;;;;;;;18.60;3.53;;;7.90;99.90;;;;;;5081036;28;20036;-42
2023/02/01 11:39:34;;;;;;;23.77;3.75;;;7.90;99.90;;;;;;5080168;28;20057;-42
2023/02/01 11:42:15;;;;;;;25.27;3.97;;;7.90;99.90;;;;;;5081290;28;20039;-44
2023/02/01 11:44:46;;;;;;;19.60;3.67;;;7.90;99.90;;;;;;5080511;28;20063;-42
2023/02/01 11:47:22;;;;;;;19.95;4.20;;;8.00;99.90;;;;;;5081849;28;20327;-43
2023/02/01 11:49:51;;;;;;;18.25;3.67;;;7.90;99.90;;;;;;5080937;28;20621;-42
2023/02/01 11:52:40;;;;;;;23.77;4.60;;;7.90;99.90;;;;;;5080911;28;20418;-44
2023/02/01 11:55:11;;;;;;;20.95;3.38;;;8.00;99.90;;;;;;5080736;28;20030;-43
2023/02/01 11:57:43;;;;;;;14.90;3.55;;;8.00;99.90;;;;;;5080960;28;20165;-43
2023/02/01 12:00:27;;;;;;;16.17;3.08;;;8.00;99.90;;;;;;5080503;28;20047;-44
2023/02/01 12:03:23;;;;;;;22.88;4.70;;;8.10;99.90;;;;;;5081789;28;20020;-43
2023/02/01 12:06:18;;;;;;;18.38;3.35;;;8.10;99.90;;;;;;5078337;28;20086;-43
2023/02/01 12:09:08;;;;;;;18.60;3.92;;;8.10;99.90;;;;;;5062795;28;20028;-44
2023/02/01 12:11:42;;;;;;;16.88;3.35;;;8.20;99.90;;;;;;5072041;28;20030;-42
2023/02/01 12:14:21;;;;;;;16.38;3.13;;;8.20;99.90;;;;;;5080620;28;20055;-43
2023/02/01 12:17:14;;;;;;;17.83;3.58;;;8.20;99.90;;;;;;5080336;28;20032;-43
2023/02/01 12:19:54;;;;;;;15.27;3.58;;;8.30;99.90;;;;;;5080066;28;20130;-42
2023/02/01 12:22:42;;;;;;;21.65;4.00;;;8.30;99.90;;;;;;5081477;28;20036;-44
2023/02/01 12:25:44;;;;;;;15.60;3.72;;;8.40;99.90;;;;;;5080417;28;20032;-43
2023/02/01 12:28:21;;;;;;;16.42;3.85;;;8.40;99.90;;;;;;5060742;28;20680;-43
2023/02/01 12:31:09;;;;;;;22.20;3.88;;;8.50;99.90;;;;;;5076663;28;20038;-42
2023/02/01 12:34:02;;;;;;;19.10;3.47;;;8.50;99.90;;;;;;5060813;28;20033;-42
2023/02/01 12:36:55;;;;;;;20.85;3.90;;;8.60;99.90;;;;;;5080170;28;20044;-42
2023/02/01 12:39:40;;;;;;;20.70;3.58;;;8.60;99.90;;;;;;5081610;28;20112;-43
2023/02/01 12:42:17;;;;;;;19.63;4.70;;;8.70;99.90;;;;;;5079412;28;20088;-43
2023/02/01 12:45:04;;;;;;;22.10;3.97;;;8.70;99.90;;;;;;5081202;28;20036;-42
2023/02/01 12:47:39;;;;;;;17.17;3.72;;;8.80;99.90;;;;;;5068689;28;20055;-43
2023/02/01 12:50:21;;;;;;;19.83;3.60;;;8.80;99.90;;;;;;5080038;28;20514;-43
2023/02/01 12:52:50;;;;;;;17.13;3.70;;;8.80;99.90;;;;;;5071136;28;20410;-43
2023/02/01 12:55:24;;;;;;;13.73;2.97;;;8.80;99.90;;;;;;5080934;28;20028;-43
2023/02/01 12:57:58;;;;;;;21.63;3.28;;;8.80;99.90;;;;;;5070291;28;20036;-44
2023/02/01 13:00:44;;;;;;;14.52;3.08;;;8.80;99.90;;;;;;5080435;28;20145;-44
2023/02/01 13:03:33;;;;;;;19.38;4.07;;;8.80;99.90;;;;;;5070507;28;20848;-43
2023/02/01 13:06:17;;;;;;;11.43;2.85;;;8.90;99.90;;;;;;5081114;28;20111;-43
2023/02/01 13:09:03;;;;;;;16.27;3.33;;;8.90;99.90;;;;;;5080815;28;20468;-43
2023/02/01 13:11:37;;;;;;;14.80;3.38;;;8.90;99.90;;;;;;5080572;28;20054;-42
2023/02/01 13:14:06;;;;;;;19.13;3.60;;;8.90;99.90;;;;;;5080600;28;20050;-43
2023/02/01 13:16:56;;;;;;;21.20;4.03;;;8.80;99.90;;;;;;5079841;28;20020;-42
2023/02/01 13:19:27;;;;;;;17.55;4.47;;;8.80;99.90;;;;;;5080564;28;20053;-43
2023/02/01 13:22:01;;;;;;;19.10;3.65;;;8.80;99.90;;;;;;5080984;28;20024;-42
2023/02/01 13:24:42;;;;;;;18.35;3.30;;;8.80;99.90;;;;;;5079951;28;20100;-43
2023/02/01 13:27:12;;;;;;;18.42;2.80;;;8.80;99.90;;;;;;5080169;28;20471;-43
2023/02/01 13:30:01;;;;;;;20.23;3.33;;;8.80;99.90;;;;;;5083576;28;20035;-43
2023/02/01 13:32:40;;;;;;;13.07;3.00;;;8.80;99.90;;;;;;5083858;28;20897;-42